Time;durP1;ratioP1;P1;durP2;ratioP2;P2;SDS_P1;SDS_P2;PMS_P1;PMS_P2;Temp;Humidity;BMP_temperature;BMP_pressure;BME280_temperature;BME280_humidity;BME280_pressure;Samples;Min_cycle;Max_cycle;Signal;HPM_P1;HPM_P2
2023/06/27 00:01:14;;;;;;;6.90;2.78;;;14.80;99.90;;;;;;6154319;23;20006;-81
2023/06/27 00:03:40;;;;;;;8.20;2.70;;;14.80;99.90;;;;;;6154479;23;20335;-80
2023/06/27 00:06:05;;;;;;;6.20;2.10;;;14.80;99.90;;;;;;6154583;23;20049;-81
2023/06/27 00:08:34;;;;;;;3.88;2.53;;;14.80;99.90;;;;;;6185846;23;20001;-81
2023/06/27 00:11:00;;;;;;;13.15;2.67;;;14.70;99.90;;;;;;6153500;23;20013;-81
2023/06/27 00:13:26;;;;;;;6.32;2.72;;;14.70;99.90;;;;;;6153037;23;20081;-80
2023/06/27 00:15:52;;;;;;;5.05;2.40;;;14.70;99.90;;;;;;6150576;23;20073;-79
2023/06/27 00:18:23;;;;;;;7.78;2.50;;;14.70;99.90;;;;;;6151351;23;20053;-80
2023/06/27 00:20:49;;;;;;;7.32;3.08;;;14.60;99.90;;;;;;6151465;23;20001;-80
2023/06/27 00:23:24;;;;;;;5.85;2.35;;;14.60;99.90;;;;;;6150194;23;20005;-79
2023/06/27 00:25:50;;;;;;;6.60;2.50;;;14.70;99.90;;;;;;6149925;23;20040;-80
2023/06/27 00:28:16;;;;;;;7.68;2.30;;;14.60;99.90;;;;;;6151945;23;20794;-80
2023/06/27 00:30:41;;;;;;;4.45;2.33;;;14.60;99.90;;;;;;6149827;23;20009;-79
2023/06/27 00:33:09;;;;;;;5.53;2.60;;;14.60;99.90;;;;;;6142810;23;20017;-80
2023/06/27 00:35:37;;;;;;;6.03;2.83;;;14.50;99.90;;;;;;6148827;23;20013;-79
2023/06/27 00:38:03;;;;;;;10.25;3.53;;;14.50;99.90;;;;;;6175956;23;20013;-79
2023/06/27 00:40:28;;;;;;;5.13;2.70;;;14.50;99.90;;;;;;6153238;23;20348;-80
2023/06/27 00:42:54;;;;;;;6.65;2.70;;;14.50;99.90;;;;;;6153102;23;20081;-79
2023/06/27 00:45:22;;;;;;;8.93;2.83;;;14.50;99.90;;;;;;6151220;23;20009;-80
2023/06/27 00:47:49;;;;;;;6.72;2.65;;;14.50;99.90;;;;;;6151562;23;20005;-78
2023/06/27 00:50:15;;;;;;;5.45;2.40;;;14.40;99.90;;;;;;6152120;23;20324;-79
2023/06/27 00:52:41;;;;;;;9.77;2.20;;;14.40;99.90;;;;;;6152507;23;20052;-78
2023/06/27 00:55:08;;;;;;;6.10;2.92;;;14.30;99.90;;;;;;6151036;23;20001;-79
2023/06/27 00:57:34;;;;;;;8.43;2.72;;;14.40;99.90;;;;;;6152826;23;20010;-80
2023/06/27 01:00:00;;;;;;;9.05;2.70;;;14.30;99.90;;;;;;6150444;23;20005;-78
2023/06/27 01:02:25;;;;;;;8.70;2.60;;;14.30;99.90;;;;;;6151469;23;20037;-79
2023/06/27 01:04:53;;;;;;;6.40;3.17;;;14.30;99.90;;;;;;6151292;23;20001;-78
2023/06/27 01:07:35;;;;;;;8.30;3.35;;;14.30;99.90;;;;;;6153844;23;20006;-79
2023/06/27 01:10:09;;;;;;;9.52;3.13;;;14.30;99.90;;;;;;6151659;23;20025;-78
2023/06/27 01:12:46;;;;;;;9.77;3.10;;;14.30;99.90;;;;;;6150700;23;20005;-79
2023/06/27 01:15:11;;;;;;;11.10;3.67;;;14.30;99.90;;;;;;6153006;23;20080;-79
2023/06/27 01:17:38;;;;;;;7.53;3.03;;;14.30;99.90;;;;;;6153189;23;20021;-78
2023/06/27 01:20:05;;;;;;;11.70;3.58;;;14.30;99.90;;;;;;6152317;23;20001;-79
2023/06/27 01:22:36;;;;;;;10.25;3.42;;;14.30;99.90;;;;;;6152158;23;20005;-78
2023/06/27 01:25:03;;;;;;;5.60;2.60;;;14.30;99.90;;;;;;6152949;23;20342;-78
2023/06/27 01:27:29;;;;;;;12.13;3.33;;;14.30;99.90;;;;;;6151773;23;20010;-79
2023/06/27 01:29:55;;;;;;;8.43;2.95;;;14.20;99.90;;;;;;6152058;23;20084;-78
2023/06/27 01:32:58;;;;;;;12.88;3.08;;;14.20;99.90;;;;;;6175250;23;20135;-79
2023/06/27 01:35:46;;;;;;;9.20;3.00;;;14.20;99.90;;;;;;6138216;23;20687;-78
2023/06/27 01:38:18;;;;;;;6.18;2.75;;;14.20;99.90;;;;;;6151574;23;20001;-79
2023/06/27 01:40:45;;;;;;;6.40;2.60;;;14.20;99.90;;;;;;6177059;23;19998;-78
2023/06/27 01:43:13;;;;;;;5.55;1.95;;;14.20;99.90;;;;;;6154440;23;20076;-79
2023/06/27 01:45:40;;;;;;;7.65;2.58;;;14.10;99.90;;;;;;6154325;23;20067;-79
2023/06/27 01:48:07;;;;;;;7.57;2.65;;;14.10;99.90;;;;;;6150545;23;20013;-78
2023/06/27 01:50:33;;;;;;;4.40;2.40;;;14.10;99.90;;;;;;6175963;23;20083;-78
2023/06/27 01:52:58;;;;;;;7.13;2.47;;;14.10;99.90;;;;;;6151470;23;20431;-79
2023/06/27 01:55:24;;;;;;;8.70;2.25;;;14.20;99.90;;;;;;6151417;23;20060;-79
2023/06/27 01:57:50;;;;;;;5.70;2.15;;;14.20;99.90;;;;;;6153833;23;20339;-79
2023/06/27 02:00:16;;;;;;;6.75;2.38;;;14.10;99.90;;;;;;6152458;23;19997;-79
2023/06/27 02:02:42;;;;;;;4.95;2.33;;;14.20;99.90;;;;;;6151511;23;20012;-79
2023/06/27 02:05:08;;;;;;;3.53;2.25;;;14.10;99.90;;;;;;6151616;23;20161;-78
2023/06/27 02:07:33;;;;;;;6.97;3.15;;;14.20;99.90;;;;;;6153534;23;20082;-78
2023/06/27 02:09:59;;;;;;;8.25;2.28;;;14.20;99.90;;;;;;6151929;23;20014;-78
2023/06/27 02:12:25;;;;;;;6.32;2.67;;;14.20;99.90;;;;;;6153856;23;20005;-78
2023/06/27 02:14:50;;;;;;;7.78;2.15;;;14.10;99.90;;;;;;6176229;23;20010;-78
2023/06/27 02:17:16;;;;;;;4.50;2.30;;;14.20;99.90;;;;;;6176921;23;20006;-78
2023/06/27 02:19:41;;;;;;;6.53;2.38;;;14.20;99.90;;;;;;6152481;23;20012;-79
2023/06/27 02:22:07;;;;;;;8.93;2.13;;;14.20;99.90;;;;;;6152635;23;20085;-79
2023/06/27 02:24:32;;;;;;;7.10;2.30;;;14.20;99.90;;;;;;6176417;23;20001;-80
2023/06/27 02:26:58;;;;;;;12.65;2.90;;;14.20;99.90;;;;;;6176877;23;20006;-78
2023/06/27 02:29:23;;;;;;;3.70;2.13;;;14.20;99.90;;;;;;6153148;23;20006;-78
2023/06/27 02:31:49;;;;;;;9.38;2.50;;;14.10;99.90;;;;;;6155735;23;20467;-79
2023/06/27 02:34:15;;;;;;;7.65;2.53;;;14.10;99.90;;;;;;6155514;23;20006;-80
2023/06/27 02:36:40;;;;;;;8.30;2.72;;;14.20;99.90;;;;;;6154831;23;20010;-80
2023/06/27 02:39:06;;;;;;;9.48;2.97;;;14.20;99.90;;;;;;6150873;23;20084;-80
2023/06/27 02:41:31;;;;;;;6.53;2.30;;;14.20;99.90;;;;;;6151376;23;20002;-80
2023/06/27 02:43:57;;;;;;;5.95;2.42;;;14.20;99.90;;;;;;6150799;23;20505;-79
2023/06/27 02:46:22;;;;;;;14.63;3.92;;;14.20;99.90;;;;;;6176240;23;20013;-77
2023/06/27 02:48:48;;;;;;;14.20;4.07;;;14.30;99.90;;;;;;6153794;23;20037;-79
2023/06/27 02:51:13;;;;;;;9.45;3.00;;;14.20;99.90;;;;;;6152251;23;20319;-79
2023/06/27 02:53:39;;;;;;;4.82;3.22;;;14.20;99.90;;;;;;6153003;23;20431;-78
2023/06/27 02:56:05;;;;;;;7.43;3.00;;;14.20;99.90;;;;;;6152611;23;20049;-78
2023/06/27 02:58:30;;;;;;;6.70;2.50;;;14.20;99.90;;;;;;6151288;23;20068;-78
2023/06/27 03:00:59;;;;;;;8.88;3.08;;;14.20;99.90;;;;;;6151686;23;20024;-79
2023/06/27 03:03:25;;;;;;;6.60;3.15;;;14.10;99.90;;;;;;6150417;23;20009;-78
2023/06/27 03:05:51;;;;;;;5.90;2.67;;;14.10;99.90;;;;;;6149525;23;20037;-79
2023/06/27 03:08:17;;;;;;;4.55;2.42;;;14.10;99.90;;;;;;6151940;23;20013;-78
2023/06/27 03:10:42;;;;;;;6.72;2.70;;;14.10;99.90;;;;;;6150430;23;20006;-78
2023/06/27 03:13:08;;;;;;;8.07;3.10;;;14.00;99.90;;;;;;6152103;23;20032;-77
2023/06/27 03:15:34;;;;;;;9.57;2.85;;;14.00;99.90;;;;;;6149200;23;20009;-79
2023/06/27 03:18:00;;;;;;;7.25;2.90;;;14.00;99.90;;;;;;6152531;23;20076;-79
2023/06/27 03:20:25;;;;;;;3.00;2.63;;;14.00;99.90;;;;;;6175696;23;19997;-78
2023/06/27 03:22:51;;;;;;;5.35;3.00;;;14.00;99.90;;;;;;6152278;23;20374;-78
2023/06/27 03:25:16;;;;;;;7.57;3.30;;;14.00;99.90;;;;;;6152399;23;19994;-79
2023/06/27 03:27:42;;;;;;;5.95;2.78;;;14.00;99.90;;;;;;6151638;23;20088;-79
2023/06/27 03:30:09;;;;;;;6.97;3.15;;;14.00;99.90;;;;;;6151421;23;19998;-78
2023/06/27 03:32:34;;;;;;;7.65;2.60;;;14.00;99.90;;;;;;6150114;23;20016;-80
2023/06/27 03:35:00;;;;;;;6.82;3.63;;;14.00;99.90;;;;;;6152811;23;20099;-80
2023/06/27 03:37:26;;;;;;;4.72;2.60;;;14.00;99.90;;;;;;6151310;23;20028;-78
2023/06/27 03:39:52;;;;;;;6.63;2.88;;;14.00;99.90;;;;;;6151339;23;20028;-80
2023/06/27 03:42:18;;;;;;;4.55;2.67;;;14.00;99.90;;;;;;6152905;23;20001;-79
2023/06/27 03:44:44;;;;;;;10.00;3.25;;;14.00;99.90;;;;;;6150194;23;20113;-79
2023/06/27 03:47:10;;;;;;;6.43;3.05;;;14.00;99.90;;;;;;6176780;23;20006;-80
2023/06/27 03:49:35;;;;;;;10.07;2.58;;;14.10;99.90;;;;;;6151313;23;20028;-79
2023/06/27 03:52:01;;;;;;;5.43;2.40;;;14.10;99.90;;;;;;6151398;23;20016;-80
2023/06/27 03:54:26;;;;;;;6.95;2.40;;;14.00;99.90;;;;;;6152056;23;20017;-80
2023/06/27 03:56:52;;;;;;;4.60;2.55;;;14.00;99.90;;;;;;6152011;23;20006;-79
2023/06/27 03:59:18;;;;;;;4.18;2.05;;;14.00;99.90;;;;;;6175554;23;20002;-78
2023/06/27 04:01:43;;;;;;;4.63;2.65;;;13.90;99.90;;;;;;6150067;23;20013;-80
2023/06/27 04:04:09;;;;;;;5.03;2.08;;;13.90;99.90;;;;;;6152546;23;20002;-78
2023/06/27 04:06:34;;;;;;;3.40;2.05;;;13.90;99.90;;;;;;6175429;23;20006;-80
2023/06/27 04:09:03;;;;;;;4.10;2.30;;;13.90;99.90;;;;;;6152684;23;20076;-79
2023/06/27 04:11:29;;;;;;;5.97;2.45;;;13.90;99.90;;;;;;6152421;23;20002;-78
2023/06/27 04:13:56;;;;;;;5.13;2.35;;;13.90;99.90;;;;;;6151513;23;20012;-80
2023/06/27 04:16:22;;;;;;;4.13;1.98;;;13.80;99.90;;;;;;6149954;23;20006;-79
2023/06/27 04:18:47;;;;;;;3.47;2.13;;;13.80;99.90;;;;;;6150475;23;20001;-78
2023/06/27 04:21:13;;;;;;;3.63;1.88;;;13.80;99.90;;;;;;6151350;23;20525;-79
2023/06/27 04:23:39;;;;;;;4.72;2.17;;;13.80;99.90;;;;;;6152052;23;20097;-80
2023/06/27 04:26:07;;;;;;;4.35;2.58;;;13.80;99.90;;;;;;6150745;23;20009;-78
2023/06/27 04:28:34;;;;;;;5.82;2.25;;;13.80;99.90;;;;;;6152323;23;20501;-78
2023/06/27 04:31:01;;;;;;;3.17;2.00;;;13.80;99.90;;;;;;6149671;23;20068;-79
2023/06/27 04:33:27;;;;;;;3.90;2.20;;;13.80;99.90;;;;;;6148411;23;20020;-80
2023/06/27 04:35:54;;;;;;;6.28;2.63;;;13.80;99.90;;;;;;6148756;23;20447;-79
2023/06/27 04:38:20;;;;;;;6.68;2.95;;;13.80;99.90;;;;;;6150168;23;20052;-78
2023/06/27 04:40:45;;;;;;;4.25;2.85;;;13.80;99.90;;;;;;6150837;23;20006;-79
2023/06/27 04:43:13;;;;;;;6.10;2.63;;;13.80;99.90;;;;;;6151400;23;20016;-80
2023/06/27 04:45:39;;;;;;;6.22;2.20;;;13.80;99.90;;;;;;6150139;23;20013;-78
2023/06/27 04:48:05;;;;;;;3.95;2.63;;;13.70;99.90;;;;;;6151005;23;20001;-78
2023/06/27 04:50:30;;;;;;;5.85;2.60;;;13.70;99.90;;;;;;6150518;23;20192;-79
2023/06/27 04:52:56;;;;;;;3.63;1.95;;;13.60;99.90;;;;;;6150183;23;20355;-78
2023/06/27 04:55:21;;;;;;;4.03;2.28;;;13.60;99.90;;;;;;6149620;23;20006;-79
2023/06/27 04:57:47;;;;;;;2.97;1.58;;;13.60;99.90;;;;;;6150911;23;20009;-80
2023/06/27 05:00:13;;;;;;;3.88;1.95;;;13.60;99.90;;;;;;6152234;23;20001;-80
2023/06/27 05:02:38;;;;;;;2.95;2.20;;;13.60;99.90;;;;;;6151148;23;20004;-79
2023/06/27 05:05:07;;;;;;;2.35;1.25;;;13.50;99.90;;;;;;6150301;23;20100;-79
2023/06/27 05:07:32;;;;;;;3.30;1.20;;;13.50;99.90;;;;;;6150352;23;20008;-78
2023/06/27 05:09:58;;;;;;;2.75;1.45;;;13.50;99.90;;;;;;6174915;23;20010;-79
2023/06/27 05:12:23;;;;;;;2.08;1.17;;;13.50;99.90;;;;;;6150394;23;20009;-79
2023/06/27 05:14:49;;;;;;;3.63;1.10;;;13.60;99.90;;;;;;6174766;23;20316;-78
2023/06/27 05:17:14;;;;;;;3.13;1.08;;;13.60;99.90;;;;;;6151866;23;20013;-78
2023/06/27 05:19:40;;;;;;;2.67;1.15;;;13.60;99.90;;;;;;6150127;23;20145;-78
2023/06/27 05:22:05;;;;;;;2.88;1.40;;;13.60;99.90;;;;;;6149238;23;20016;-78
2023/06/27 05:24:31;;;;;;;2.25;1.38;;;13.50;99.90;;;;;;6149354;23;20368;-79
2023/06/27 05:26:56;;;;;;;1.73;1.60;;;13.50;99.90;;;;;;6174774;23;20006;-78
2023/06/27 05:29:22;;;;;;;1.85;1.05;;;13.50;99.90;;;;;;6149526;23;20063;-79
2023/06/27 05:31:47;;;;;;;2.05;1.05;;;13.60;99.90;;;;;;6150653;23;20128;-79
2023/06/27 05:34:13;;;;;;;3.47;1.45;;;13.60;99.90;;;;;;6146894;23;20016;-78
2023/06/27 05:36:39;;;;;;;2.00;1.58;;;13.70;99.90;;;;;;6147184;23;20056;-79
2023/06/27 05:39:04;;;;;;;2.80;1.30;;;13.80;99.90;;;;;;6147213;23;20085;-78
2023/06/27 05:41:30;;;;;;;4.65;1.98;;;13.80;99.90;;;;;;6173969;23;20416;-78
2023/06/27 05:43:56;;;;;;;2.83;1.98;;;13.90;99.90;;;;;;6149119;23;20006;-78
2023/06/27 05:46:21;;;;;;;3.90;2.00;;;13.90;99.90;;;;;;6149141;23;20009;-78
2023/06/27 05:48:47;;;;;;;2.88;1.70;;;14.00;99.90;;;;;;6150540;23;20085;-78
2023/06/27 05:51:13;;;;;;;5.07;2.05;;;14.00;99.90;;;;;;6149128;23;20020;-78
2023/06/27 05:53:39;;;;;;;2.80;2.10;;;14.10;99.90;;;;;;6150707;23;20006;-77
2023/06/27 05:56:05;;;;;;;3.75;2.28;;;14.20;99.90;;;;;;6147647;23;20012;-77
2023/06/27 05:58:34;;;;;;;4.30;2.97;;;14.40;99.90;;;;;;6148631;23;20006;-78
2023/06/27 06:01:00;;;;;;;2.40;2.00;;;14.60;99.90;;;;;;6149361;23;20010;-77
2023/06/27 06:03:26;;;;;;;4.70;2.75;;;14.80;99.90;;;;;;6148386;23;20005;-77
2023/06/27 06:05:51;;;;;;;5.32;3.13;;;14.90;99.90;;;;;;6147331;23;20041;-78
2023/06/27 06:08:18;;;;;;;4.03;2.50;;;15.00;99.90;;;;;;6173228;23;20060;-78
2023/06/27 06:10:45;;;;;;;4.53;2.95;;;15.10;99.90;;;;;;6148653;23;20002;-78
2023/06/27 06:13:10;;;;;;;5.28;2.70;;;15.20;99.90;;;;;;6149987;23;20028;-78
2023/06/27 06:15:36;;;;;;;4.53;2.72;;;15.40;99.90;;;;;;6148185;23;20447;-80
2023/06/27 06:18:02;;;;;;;5.68;2.70;;;15.50;99.90;;;;;;6174370;23;20428;-79
2023/06/27 06:20:29;;;;;;;4.22;2.97;;;15.70;99.90;;;;;;6150400;23;20347;-78
2023/06/27 06:22:55;;;;;;;3.20;2.78;;;15.80;99.90;;;;;;6176602;23;20036;-78
2023/06/27 06:25:20;;;;;;;5.55;3.05;;;16.00;99.90;;;;;;6149593;23;20173;-77
2023/06/27 06:27:46;;;;;;;4.43;2.90;;;16.10;99.90;;;;;;6176229;23;20567;-78
2023/06/27 06:30:12;;;;;;;7.82;3.78;;;16.20;99.90;;;;;;6150790;23;20000;-78
2023/06/27 06:32:37;;;;;;;7.28;2.45;;;16.30;99.90;;;;;;6152910;23;20022;-78
2023/06/27 06:35:03;;;;;;;3.50;2.15;;;16.40;99.90;;;;;;6152994;23;20060;-78
2023/06/27 06:37:29;;;;;;;6.18;2.10;;;16.60;99.90;;;;;;6153975;23;20005;-79
2023/06/27 06:39:55;;;;;;;5.20;2.15;;;16.70;99.90;;;;;;6152414;23;20613;-78
2023/06/27 06:42:20;;;;;;;4.15;2.10;;;16.80;99.90;;;;;;6151612;23;20649;-78
2023/06/27 06:44:47;;;;;;;4.80;2.10;;;16.90;99.90;;;;;;6150435;23;19997;-78
2023/06/27 06:47:13;;;;;;;3.67;2.08;;;17.00;99.90;;;;;;6176606;23;20037;-78
2023/06/27 06:49:39;;;;;;;5.07;2.83;;;17.10;99.90;;;;;;6153452;23;20049;-78
2023/06/27 06:52:05;;;;;;;6.40;2.17;;;17.30;99.90;;;;;;6155333;23;20009;-78
2023/06/27 06:54:30;;;;;;;7.05;2.28;;;17.40;99.90;;;;;;6154775;23;20489;-81
2023/06/27 06:56:56;;;;;;;4.95;2.33;;;17.50;99.90;;;;;;6152499;23;20002;-80
2023/06/27 06:59:21;;;;;;;6.43;1.90;;;17.70;99.90;;;;;;6154172;23;20010;-78
2023/06/27 07:01:47;;;;;;;3.83;1.70;;;17.90;99.90;;;;;;6153778;23;20140;-81
2023/06/27 07:04:13;;;;;;;1.70;1.55;;;17.80;99.90;;;;;;6177393;23;20012;-79
2023/06/27 07:06:38;;;;;;;4.47;1.88;;;17.60;99.90;;;;;;6153182;23;20013;-79
2023/06/27 07:09:04;;;;;;;5.07;1.77;;;17.50;99.90;;;;;;6153325;23;20040;-76
2023/06/27 07:11:30;;;;;;;4.57;1.17;;;17.30;99.90;;;;;;6152134;23;20344;-79
2023/06/27 07:13:55;;;;;;;6.45;1.85;;;17.10;99.90;;;;;;6152429;23;20093;-80
2023/06/27 07:16:21;;;;;;;6.50;1.80;;;16.90;99.90;;;;;;6151971;23;20452;-77
2023/06/27 07:18:46;;;;;;;1.92;1.17;;;16.80;99.90;;;;;;6152491;23;20016;-79
2023/06/27 07:21:12;;;;;;;3.50;1.50;;;16.60;99.90;;;;;;6152230;23;20412;-78
2023/06/27 07:23:38;;;;;;;1.60;1.40;;;16.50;99.90;;;;;;6151054;23;20010;-78
2023/06/27 07:26:04;;;;;;;1.30;0.80;;;16.40;99.90;;;;;;6176044;23;20013;-79
2023/06/27 07:28:29;;;;;;;1.45;1.20;;;16.40;99.90;;;;;;6153343;23;20578;-78
2023/06/27 07:30:55;;;;;;;5.32;1.83;;;16.50;99.90;;;;;;6176552;23;20089;-78
2023/06/27 07:33:21;;;;;;;2.20;1.40;;;16.60;99.90;;;;;;6151139;23;20021;-77
2023/06/27 07:35:46;;;;;;;6.80;1.67;;;16.80;99.90;;;;;;6176230;23;20009;-78
2023/06/27 07:38:12;;;;;;;4.22;1.67;;;17.00;99.90;;;;;;6152067;23;20435;-77
2023/06/27 07:40:37;;;;;;;4.40;1.85;;;17.20;99.90;;;;;;6153142;23;20101;-77
2023/06/27 07:43:03;;;;;;;4.18;2.15;;;17.50;99.90;;;;;;6154224;23;20009;-78
2023/06/27 07:45:29;;;;;;;5.32;1.48;;;17.70;99.90;;;;;;6151666;23;20027;-78
2023/06/27 07:47:55;;;;;;;2.60;1.58;;;17.90;99.90;;;;;;6155275;23;20005;-79
2023/06/27 07:50:20;;;;;;;2.88;1.45;;;18.20;99.90;;;;;;6152417;23;20084;-79
2023/06/27 07:52:46;;;;;;;2.05;1.23;;;18.30;99.90;;;;;;6155226;23;20104;-77
2023/06/27 07:55:11;;;;;;;3.10;1.58;;;18.40;99.90;;;;;;6177106;23;20439;-77
2023/06/27 07:57:37;;;;;;;3.08;1.10;;;18.50;99.90;;;;;;6153246;23;20016;-79
2023/06/27 08:00:03;;;;;;;0.93;0.93;;;18.50;99.90;;;;;;6155169;23;19997;-80
2023/06/27 08:02:32;;;;;;;4.63;1.60;;;18.70;99.90;;;;;;6153852;23;20393;-80
2023/06/27 08:04:58;;;;;;;2.67;1.30;;;18.90;99.90;;;;;;6152888;23;20024;-80
2023/06/27 08:07:23;;;;;;;3.33;1.17;;;19.00;99.90;;;;;;6153129;23;20136;-78
2023/06/27 08:09:49;;;;;;;2.47;0.95;;;19.20;99.90;;;;;;6176934;23;20412;-80
2023/06/27 08:12:14;;;;;;;2.20;1.38;;;19.30;99.90;;;;;;6154935;23;20528;-79
2023/06/27 08:14:42;;;;;;;2.85;1.40;;;19.40;99.90;;;;;;6153277;23;20012;-79
2023/06/27 08:17:07;;;;;;;5.78;1.42;;;19.50;99.90;;;;;;6155887;23;20002;-79
2023/06/27 08:19:33;;;;;;;4.00;1.50;;;19.60;99.90;;;;;;6153470;23;20008;-79
2023/06/27 08:21:59;;;;;;;2.67;1.15;;;19.60;99.90;;;;;;6153678;23;20001;-78
2023/06/27 08:24:24;;;;;;;3.67;1.42;;;19.50;99.90;;;;;;6154755;23;20083;-79
2023/06/27 08:26:52;;;;;;;2.42;1.30;;;19.40;99.90;;;;;;6152746;23;20002;-79
2023/06/27 08:29:18;;;;;;;3.63;1.17;;;19.30;99.90;;;;;;6150997;23;20039;-83
2023/06/27 08:31:43;;;;;;;3.13;1.23;;;19.40;99.90;;;;;;6151325;23;20017;-80
2023/06/27 08:34:09;;;;;;;1.92;1.38;;;19.40;99.90;;;;;;6150780;23;20021;-78
2023/06/27 08:36:34;;;;;;;8.05;1.48;;;19.40;99.90;;;;;;6150256;23;20089;-79
2023/06/27 08:39:00;;;;;;;4.45;1.20;;;19.30;99.90;;;;;;6151068;23;20008;-79
2023/06/27 08:41:25;;;;;;;4.85;1.50;;;19.10;99.90;;;;;;6150973;23;20265;-80
2023/06/27 08:43:51;;;;;;;3.42;1.67;;;18.80;99.90;;;;;;6149066;23;20002;-78
2023/06/27 08:46:21;;;;;;;2.58;1.10;;;18.60;99.90;;;;;;6150167;23;20006;-78
2023/06/27 08:48:47;;;;;;;5.25;1.48;;;18.20;99.90;;;;;;6150711;23;20006;-80
2023/06/27 08:51:17;;;;;;;3.42;1.45;;;17.90;99.90;;;;;;6153181;23;20023;-83
2023/06/27 08:53:48;;;;;;;3.35;1.58;;;17.60;99.90;;;;;;6152956;23;20010;-81
2023/06/27 08:56:17;;;;;;;3.53;1.58;;;17.30;99.90;;;;;;6154786;23;20005;-80
2023/06/27 08:58:49;;;;;;;3.75;1.58;;;17.10;99.90;;;;;;6151885;23;20454;-81
2023/06/27 09:01:15;;;;;;;2.55;1.30;;;17.00;99.90;;;;;;6175042;23;20072;-81
2023/06/27 09:03:41;;;;;;;2.95;1.48;;;17.00;99.90;;;;;;6151670;23;20013;-83
2023/06/27 09:06:07;;;;;;;3.13;1.55;;;16.90;99.90;;;;;;6157061;23;20347;-82
2023/06/27 09:08:33;;;;;;;2.63;1.92;;;16.80;99.90;;;;;;6155140;23;20009;-83
2023/06/27 09:11:00;;;;;;;2.97;1.50;;;16.80;99.90;;;;;;6157282;23;20037;-83
2023/06/27 09:13:26;;;;;;;3.70;1.40;;;16.80;99.90;;;;;;6153212;23;20012;-82
2023/06/27 09:16:00;;;;;;;4.80;2.17;;;16.90;99.90;;;;;;5063713;28;20406;-62
2023/06/27 09:18:26;;;;;;;2.65;1.40;;;16.90;99.90;;;;;;5058331;28;20077;-62
2023/06/27 09:20:56;;;;;;;3.35;2.05;;;17.20;99.90;;;;;;5053128;28;20099;-62
2023/06/27 09:23:21;;;;;;;3.83;1.63;;;17.50;99.90;;;;;;5059193;28;20472;-60
2023/06/27 09:26:05;;;;;;;2.47;1.88;;;17.70;99.90;;;;;;5057064;28;20030;-60
2023/06/27 09:28:31;;;;;;;3.25;1.30;;;17.80;99.90;;;;;;5055261;28;20025;-60
2023/06/27 09:30:57;;;;;;;3.88;1.75;;;17.80;99.90;;;;;;5049783;28;20171;-59
2023/06/27 09:33:23;;;;;;;2.22;1.40;;;17.80;99.90;;;;;;5005474;28;20025;-56
2023/06/27 09:35:50;;;;;;;1.92;1.30;;;17.80;99.90;;;;;;5030282;28;20120;-58
2023/06/27 09:38:18;;;;;;;5.15;1.70;;;17.90;99.90;;;;;;5024035;28;20029;-59
2023/06/27 09:40:44;;;;;;;6.63;2.00;;;18.00;99.90;;;;;;5035146;28;20104;-58
2023/06/27 09:43:12;;;;;;;3.78;0.95;;;18.20;99.90;;;;;;5026913;28;20112;-57
2023/06/27 09:45:37;;;;;;;2.97;1.30;;;18.20;99.90;;;;;;5041657;28;20541;-58
2023/06/27 09:48:07;;;;;;;5.10;1.40;;;18.30;99.90;;;;;;5030893;28;20026;-57
2023/06/27 09:50:33;;;;;;;3.78;1.83;;;18.40;99.90;;;;;;5034080;28;20105;-57
2023/06/27 09:53:00;;;;;;;3.90;1.35;;;18.40;99.90;;;;;;5033869;28;20403;-58
2023/06/27 09:55:26;;;;;;;2.80;1.58;;;18.40;99.90;;;;;;5032885;28;20030;-55
2023/06/27 09:57:52;;;;;;;5.22;1.38;;;18.30;99.90;;;;;;5037148;28;20022;-59
2023/06/27 10:00:20;;;;;;;4.07;1.08;;;18.20;99.90;;;;;;5032567;28;20150;-58
2023/06/27 10:02:48;;;;;;;2.80;1.10;;;18.20;99.90;;;;;;5038394;28;20029;-59
2023/06/27 10:05:14;;;;;;;3.72;1.35;;;18.20;99.90;;;;;;5036419;28;20026;-56
2023/06/27 10:07:40;;;;;;;4.18;0.90;;;18.20;99.90;;;;;;5029673;28;20022;-59
2023/06/27 10:10:07;;;;;;;4.13;1.42;;;18.00;99.90;;;;;;5035361;28;20041;-59
2023/06/27 10:12:32;;;;;;;5.65;1.17;;;17.90;99.90;;;;;;5034668;28;20021;-59
2023/06/27 10:14:58;;;;;;;3.75;1.02;;;17.60;99.90;;;;;;5030059;28;20040;-58
2023/06/27 10:17:25;;;;;;;4.55;1.25;;;17.60;99.90;;;;;;5040653;28;20036;-59
2023/06/27 10:19:51;;;;;;;4.55;1.67;;;17.60;99.90;;;;;;5038759;28;20106;-58
2023/06/27 10:22:21;;;;;;;2.03;1.20;;;17.60;99.90;;;;;;5030094;28;20022;-58
2023/06/27 10:24:51;;;;;;;1.77;1.00;;;17.80;99.90;;;;;;5034707;28;20025;-59
2023/06/27 10:27:20;;;;;;;5.75;1.33;;;18.00;99.90;;;;;;5022202;28;20451;-58
2023/06/27 10:29:47;;;;;;;3.85;1.38;;;18.20;99.90;;;;;;5018058;28;20032;-57
2023/06/27 10:32:19;;;;;;;4.78;2.10;;;18.40;99.90;;;;;;5018907;28;20512;-59
2023/06/27 10:34:45;;;;;;;3.53;1.38;;;18.40;99.90;;;;;;5018673;28;20071;-60
2023/06/27 10:37:23;;;;;;;3.05;1.00;;;18.40;99.90;;;;;;5025320;28;20025;-59
2023/06/27 10:40:00;;;;;;;4.25;1.27;;;18.50;99.90;;;;;;5020215;28;20025;-59
2023/06/27 10:42:31;;;;;;;2.50;1.35;;;18.50;99.90;;;;;;5025533;28;20021;-59
2023/06/27 10:45:00;;;;;;;1.90;0.75;;;18.50;99.90;;;;;;5021297;28;20091;-58
2023/06/27 10:47:27;;;;;;;4.07;1.23;;;18.60;99.90;;;;;;5026997;28;20025;-55
2023/06/27 10:50:00;;;;;;;4.22;1.20;;;18.80;99.90;;;;;;5023331;28;20581;-59
2023/06/27 10:52:25;;;;;;;3.60;0.90;;;18.90;99.90;;;;;;5027409;28;20025;-58
2023/06/27 10:55:31;;;;;;;3.17;0.90;;;18.90;99.90;;;;;;5020960;28;20108;-58
2023/06/27 10:58:26;;;;;;;1.42;0.50;;;18.70;99.90;;;;;;5018616;28;20063;-58
2023/06/27 11:00:52;;;;;;;1.63;1.00;;;18.70;99.90;;;;;;4992406;28;20033;-57
2023/06/27 11:03:22;;;;;;;3.25;0.85;;;18.70;99.90;;;;;;5016921;28;20096;-57
2023/06/27 11:05:58;;;;;;;2.83;0.95;;;18.70;99.90;;;;;;5023773;28;20104;-58
2023/06/27 11:08:28;;;;;;;5.05;1.15;;;18.80;99.90;;;;;;5017681;28;20088;-56
2023/06/27 11:10:59;;;;;;;3.28;1.15;;;18.90;99.90;;;;;;5016916;28;20026;-57
2023/06/27 11:13:27;;;;;;;3.80;1.30;;;19.20;99.90;;;;;;5013732;28;20022;-57
2023/06/27 11:15:54;;;;;;;2.58;1.02;;;19.30;99.90;;;;;;5009245;28;20030;-56
2023/06/27 11:18:22;;;;;;;5.97;1.42;;;19.40;99.90;;;;;;5020290;28;20090;-49
2023/06/27 11:20:49;;;;;;;1.42;0.98;;;19.50;99.90;;;;;;5021677;28;20029;-57
2023/06/27 11:23:16;;;;;;;2.72;0.95;;;19.60;99.90;;;;;;5021654;28;20033;-62
2023/06/27 11:25:44;;;;;;;3.85;1.25;;;19.60;99.90;;;;;;5022995;28;20071;-56
2023/06/27 11:28:12;;;;;;;3.75;0.75;;;19.60;99.90;;;;;;5018410;28;20061;-58
2023/06/27 11:30:39;;;;;;;3.40;1.10;;;19.50;99.90;;;;;;5023278;28;20025;-57
2023/06/27 11:33:06;;;;;;;3.35;0.73;;;19.70;99.90;;;;;;5015066;28;20025;-59
2023/06/27 11:35:32;;;;;;;4.00;1.00;;;19.90;99.90;;;;;;5020811;28;20436;-59
2023/06/27 11:37:58;;;;;;;4.68;1.25;;;20.00;99.90;;;;;;5018954;28;20022;-58
2023/06/27 11:40:24;;;;;;;3.85;0.90;;;20.00;99.90;;;;;;5017017;28;20026;-56
2023/06/27 11:42:51;;;;;;;2.63;1.00;;;20.00;99.90;;;;;;5018954;28;20033;-56
2023/06/27 11:45:16;;;;;;;5.55;1.45;;;19.90;99.90;;;;;;5017096;28;20032;-59
2023/06/27 11:47:44;;;;;;;3.08;1.20;;;19.90;99.90;;;;;;5025495;28;20025;-53
2023/06/27 11:50:11;;;;;;;3.47;0.85;;;19.90;99.90;;;;;;5009817;28;20033;-58
2023/06/27 11:52:37;;;;;;;5.20;1.27;;;19.90;99.90;;;;;;5020033;28;20034;-55
2023/06/27 11:55:05;;;;;;;4.72;1.33;;;20.00;99.90;;;;;;5013197;28;20018;-59
2023/06/27 11:57:58;;;;;;;2.50;0.90;;;20.10;99.90;;;;;;5024467;28;20057;-60
2023/06/27 12:00:25;;;;;;;6.53;1.45;;;20.40;99.90;;;;;;5009296;28;20086;-58
2023/06/27 12:02:56;;;;;;;3.65;1.58;;;20.50;99.90;;;;;;5020819;28;20112;-60
2023/06/27 12:05:24;;;;;;;3.17;1.67;;;20.60;99.90;;;;;;5014778;28;20100;-59
2023/06/27 12:07:57;;;;;;;3.60;1.02;;;20.60;99.90;;;;;;5012149;28;20032;-56
2023/06/27 12:10:22;;;;;;;2.35;1.25;;;20.40;99.90;;;;;;5017747;28;20391;-57
2023/06/27 12:12:50;;;;;;;3.05;0.98;;;20.20;99.90;;;;;;5017160;28;20038;-57
2023/06/27 12:15:16;;;;;;;4.43;1.33;;;20.20;99.90;;;;;;5014631;28;20033;-57
2023/06/27 12:18:01;;;;;;;4.97;1.40;;;20.10;99.90;;;;;;5025691;28;20030;-60
2023/06/27 12:20:41;;;;;;;4.05;0.70;;;19.90;99.90;;;;;;5021869;28;20025;-60
2023/06/27 12:23:07;;;;;;;3.15;1.30;;;19.70;99.90;;;;;;5008759;28;20022;-58
2023/06/27 12:25:33;;;;;;;3.92;1.42;;;19.50;99.90;;;;;;5020262;28;20074;-58
2023/06/27 12:27:58;;;;;;;4.63;1.45;;;19.40;99.90;;;;;;5017432;28;20047;-61
2023/06/27 12:30:24;;;;;;;4.20;1.30;;;19.20;99.90;;;;;;5017970;28;20033;-61
2023/06/27 12:32:49;;;;;;;1.73;0.80;;;19.00;99.90;;;;;;5022320;28;20026;-59
2023/06/27 12:35:18;;;;;;;4.70;0.90;;;18.90;99.90;;;;;;5023655;28;20029;-58
2023/06/27 12:37:46;;;;;;;3.65;1.25;;;18.80;99.90;;;;;;5020952;28;20101;-59
2023/06/27 12:40:13;;;;;;;5.80;0.85;;;18.90;99.90;;;;;;5014532;28;20037;-60
2023/06/27 12:42:41;;;;;;;1.70;1.00;;;18.90;99.90;;;;;;5021931;28;20021;-59
2023/06/27 12:45:07;;;;;;;3.10;1.02;;;18.90;99.90;;;;;;5016322;28;20045;-56